sensor_id;sensor_type;location;lat;lon;timestamp;P1;durP1;ratioP1;P2;durP2;ratioP2
75191;SDS011;63771;52.580;9.734;2023-04-28T00:01:13;3.50;;;3.20;;
75191;SDS011;63771;52.580;9.734;2023-04-28T00:03:39;3.08;;;2.65;;
75191;SDS011;63771;52.580;9.734;2023-04-28T00:06:05;2.70;;;2.47;;
75191;SDS011;63771;52.580;9.734;2023-04-28T00:08:30;3.77;;;3.37;;
75191;SDS011;63771;52.580;9.734;2023-04-28T00:10:56;4.70;;;3.47;;
75191;SDS011;63771;52.580;9.734;2023-04-28T00:13:21;3.03;;;2.70;;
75191;SDS011;63771;52.580;9.734;2023-04-28T00:15:48;3.63;;;3.27;;
75191;SDS011;63771;52.580;9.734;2023-04-28T00:18:14;3.17;;;2.97;;
75191;SDS011;63771;52.580;9.734;2023-04-28T00:20:39;6.20;;;3.15;;
75191;SDS011;63771;52.580;9.734;2023-04-28T00:23:04;2.90;;;2.70;;
75191;SDS011;63771;52.580;9.734;2023-04-28T00:25:30;3.90;;;3.00;;
75191;SDS011;63771;52.580;9.734;2023-04-28T00:27:55;4.35;;;3.22;;
75191;SDS011;63771;52.580;9.734;2023-04-28T00:30:21;3.35;;;3.10;;
75191;SDS011;63771;52.580;9.734;2023-04-28T00:32:46;5.03;;;3.17;;
75191;SDS011;63771;52.580;9.734;2023-04-28T00:35:12;3.33;;;3.03;;
75191;SDS011;63771;52.580;9.734;2023-04-28T00:37:37;3.20;;;2.88;;
75191;SDS011;63771;52.580;9.734;2023-04-28T00:40:03;3.97;;;3.72;;
75191;SDS011;63771;52.580;9.734;2023-04-28T00:42:29;3.20;;;2.90;;
75191;SDS011;63771;52.580;9.734;2023-04-28T00:44:54;3.22;;;3.00;;
75191;SDS011;63771;52.580;9.734;2023-04-28T00:47:19;3.28;;;3.00;;
75191;SDS011;63771;52.580;9.734;2023-04-28T00:49:45;3.27;;;3.07;;
75191;SDS011;63771;52.580;9.734;2023-04-28T00:52:11;6.15;;;3.20;;
75191;SDS011;63771;52.580;9.734;2023-04-28T00:54:37;3.38;;;2.90;;
75191;SDS011;63771;52.580;9.734;2023-04-28T00:57:02;3.67;;;2.97;;
75191;SDS011;63771;52.580;9.734;2023-04-28T00:59:28;3.30;;;3.00;;
75191;SDS011;63771;52.580;9.734;2023-04-28T01:01:54;4.18;;;2.72;;
75191;SDS011;63771;52.580;9.734;2023-04-28T01:04:20;3.58;;;3.00;;
75191;SDS011;63771;52.580;9.734;2023-04-28T01:06:47;3.38;;;3.08;;
75191;SDS011;63771;52.580;9.734;2023-04-28T01:09:16;3.25;;;2.95;;
75191;SDS011;63771;52.580;9.734;2023-04-28T01:11:42;4.03;;;2.78;;
75191;SDS011;63771;52.580;9.734;2023-04-28T01:14:07;3.83;;;2.90;;
75191;SDS011;63771;52.580;9.734;2023-04-28T01:16:32;4.10;;;3.07;;
75191;SDS011;63771;52.580;9.734;2023-04-28T01:18:59;4.22;;;3.10;;
75191;SDS011;63771;52.580;9.734;2023-04-28T01:21:31;3.53;;;2.78;;
75191;SDS011;63771;52.580;9.734;2023-04-28T01:23:57;5.60;;;2.88;;
75191;SDS011;63771;52.580;9.734;2023-04-28T01:26:23;2.85;;;2.65;;
75191;SDS011;63771;52.580;9.734;2023-04-28T01:28:49;3.75;;;2.58;;
75191;SDS011;63771;52.580;9.734;2023-04-28T01:31:14;3.78;;;2.53;;
75191;SDS011;63771;52.580;9.734;2023-04-28T01:33:40;2.95;;;2.75;;
75191;SDS011;63771;52.580;9.734;2023-04-28T01:36:06;4.40;;;2.85;;
75191;SDS011;63771;52.580;9.734;2023-04-28T01:38:31;3.40;;;3.10;;
75191;SDS011;63771;52.580;9.734;2023-04-28T01:40:56;3.37;;;2.77;;
75191;SDS011;63771;52.580;9.734;2023-04-28T01:43:23;2.75;;;2.47;;
75191;SDS011;63771;52.580;9.734;2023-04-28T01:45:48;3.73;;;2.47;;
75191;SDS011;63771;52.580;9.734;2023-04-28T01:48:13;3.27;;;2.33;;
75191;SDS011;63771;52.580;9.734;2023-04-28T01:50:38;5.10;;;2.60;;
75191;SDS011;63771;52.580;9.734;2023-04-28T01:53:04;2.80;;;2.60;;
75191;SDS011;63771;52.580;9.734;2023-04-28T01:55:29;3.67;;;2.90;;
75191;SDS011;63771;52.580;9.734;2023-04-28T01:57:55;6.03;;;2.83;;
75191;SDS011;63771;52.580;9.734;2023-04-28T02:00:22;2.60;;;2.40;;
75191;SDS011;63771;52.580;9.734;2023-04-28T02:02:47;3.77;;;2.90;;
75191;SDS011;63771;52.580;9.734;2023-04-28T02:05:12;3.43;;;2.80;;
75191;SDS011;63771;52.580;9.734;2023-04-28T02:07:38;5.60;;;2.65;;
75191;SDS011;63771;52.580;9.734;2023-04-28T02:10:03;2.97;;;2.70;;
75191;SDS011;63771;52.580;9.734;2023-04-28T02:12:29;4.60;;;2.70;;
75191;SDS011;63771;52.580;9.734;2023-04-28T02:14:54;2.45;;;2.35;;
75191;SDS011;63771;52.580;9.734;2023-04-28T02:17:20;2.73;;;2.53;;
75191;SDS011;63771;52.580;9.734;2023-04-28T02:19:45;3.13;;;2.80;;
75191;SDS011;63771;52.580;9.734;2023-04-28T02:22:10;5.30;;;2.53;;
75191;SDS011;63771;52.580;9.734;2023-04-28T02:24:36;2.80;;;2.60;;
75191;SDS011;63771;52.580;9.734;2023-04-28T02:27:02;4.40;;;2.33;;
75191;SDS011;63771;52.580;9.734;2023-04-28T02:29:28;3.13;;;2.78;;
75191;SDS011;63771;52.580;9.734;2023-04-28T02:31:54;2.28;;;2.13;;
75191;SDS011;63771;52.580;9.734;2023-04-28T02:34:20;5.88;;;2.90;;
75191;SDS011;63771;52.580;9.734;2023-04-28T02:36:45;3.57;;;2.50;;
75191;SDS011;63771;52.580;9.734;2023-04-28T02:39:12;3.25;;;2.60;;
75191;SDS011;63771;52.580;9.734;2023-04-28T02:41:37;3.40;;;2.70;;
75191;SDS011;63771;52.580;9.734;2023-04-28T02:44:02;5.83;;;2.70;;
75191;SDS011;63771;52.580;9.734;2023-04-28T02:46:28;8.30;;;2.95;;
75191;SDS011;63771;52.580;9.734;2023-04-28T02:48:53;2.83;;;2.63;;
75191;SDS011;63771;52.580;9.734;2023-04-28T02:51:18;2.55;;;2.42;;
75191;SDS011;63771;52.580;9.734;2023-04-28T02:53:44;4.30;;;3.00;;
75191;SDS011;63771;52.580;9.734;2023-04-28T02:56:09;3.60;;;2.90;;
75191;SDS011;63771;52.580;9.734;2023-04-28T02:58:35;4.22;;;2.95;;
75191;SDS011;63771;52.580;9.734;2023-04-28T03:01:00;5.23;;;3.00;;
75191;SDS011;63771;52.580;9.734;2023-04-28T03:03:26;6.30;;;3.28;;
75191;SDS011;63771;52.580;9.734;2023-04-28T03:05:51;3.87;;;2.70;;
75191;SDS011;63771;52.580;9.734;2023-04-28T03:08:16;3.30;;;3.10;;
75191;SDS011;63771;52.580;9.734;2023-04-28T03:10:41;3.70;;;2.90;;
75191;SDS011;63771;52.580;9.734;2023-04-28T03:13:07;3.63;;;3.17;;
75191;SDS011;63771;52.580;9.734;2023-04-28T03:15:32;5.27;;;2.70;;
75191;SDS011;63771;52.580;9.734;2023-04-28T03:17:57;3.23;;;2.93;;
75191;SDS011;63771;52.580;9.734;2023-04-28T03:20:23;4.30;;;2.63;;
75191;SDS011;63771;52.580;9.734;2023-04-28T03:22:48;3.67;;;3.10;;
75191;SDS011;63771;52.580;9.734;2023-04-28T03:25:13;2.70;;;2.50;;
75191;SDS011;63771;52.580;9.734;2023-04-28T03:27:39;4.30;;;2.75;;
75191;SDS011;63771;52.580;9.734;2023-04-28T03:30:04;2.30;;;2.10;;
75191;SDS011;63771;52.580;9.734;2023-04-28T03:32:30;3.67;;;3.30;;
75191;SDS011;63771;52.580;9.734;2023-04-28T03:34:56;3.20;;;2.90;;
75191;SDS011;63771;52.580;9.734;2023-04-28T03:37:21;4.43;;;2.80;;
75191;SDS011;63771;52.580;9.734;2023-04-28T03:39:46;3.28;;;2.97;;
75191;SDS011;63771;52.580;9.734;2023-04-28T03:42:12;2.97;;;2.67;;
75191;SDS011;63771;52.580;9.734;2023-04-28T03:44:37;3.03;;;2.77;;
75191;SDS011;63771;52.580;9.734;2023-04-28T03:47:03;5.90;;;3.07;;
75191;SDS011;63771;52.580;9.734;2023-04-28T03:49:28;2.72;;;2.53;;
75191;SDS011;63771;52.580;9.734;2023-04-28T03:51:53;3.20;;;2.90;;
75191;SDS011;63771;52.580;9.734;2023-04-28T03:54:19;3.13;;;2.50;;
75191;SDS011;63771;52.580;9.734;2023-04-28T03:56:44;3.45;;;2.60;;
75191;SDS011;63771;52.580;9.734;2023-04-28T03:59:10;3.28;;;2.55;;
75191;SDS011;63771;52.580;9.734;2023-04-28T04:01:36;4.13;;;2.45;;
75191;SDS011;63771;52.580;9.734;2023-04-28T04:04:02;5.55;;;2.78;;
75191;SDS011;63771;52.580;9.734;2023-04-28T04:06:28;3.78;;;2.42;;
75191;SDS011;63771;52.580;9.734;2023-04-28T04:08:53;4.22;;;2.83;;
75191;SDS011;63771;52.580;9.734;2023-04-28T04:11:19;2.97;;;2.78;;
75191;SDS011;63771;52.580;9.734;2023-04-28T04:13:44;4.15;;;2.58;;
75191;SDS011;63771;52.580;9.734;2023-04-28T04:16:10;2.93;;;2.50;;
75191;SDS011;63771;52.580;9.734;2023-04-28T04:18:35;3.83;;;2.50;;
75191;SDS011;63771;52.580;9.734;2023-04-28T04:21:01;2.65;;;2.45;;
75191;SDS011;63771;52.580;9.734;2023-04-28T04:23:27;3.45;;;2.95;;
75191;SDS011;63771;52.580;9.734;2023-04-28T04:25:52;2.97;;;2.67;;
75191;SDS011;63771;52.580;9.734;2023-04-28T04:28:17;4.47;;;2.72;;
75191;SDS011;63771;52.580;9.734;2023-04-28T04:30:43;8.23;;;2.83;;
75191;SDS011;63771;52.580;9.734;2023-04-28T04:33:08;3.03;;;2.65;;
75191;SDS011;63771;52.580;9.734;2023-04-28T04:35:34;3.38;;;2.97;;
75191;SDS011;63771;52.580;9.734;2023-04-28T04:38:00;3.03;;;2.83;;
75191;SDS011;63771;52.580;9.734;2023-04-28T04:40:27;4.43;;;3.33;;
75191;SDS011;63771;52.580;9.734;2023-04-28T04:42:52;3.10;;;2.90;;
75191;SDS011;63771;52.580;9.734;2023-04-28T04:45:17;4.10;;;3.33;;
75191;SDS011;63771;52.580;9.734;2023-04-28T04:47:43;4.28;;;2.90;;
75191;SDS011;63771;52.580;9.734;2023-04-28T04:50:09;3.63;;;2.50;;
75191;SDS011;63771;52.580;9.734;2023-04-28T04:52:35;6.18;;;3.35;;
75191;SDS011;63771;52.580;9.734;2023-04-28T04:55:01;3.33;;;2.67;;
75191;SDS011;63771;52.580;9.734;2023-04-28T04:57:26;3.20;;;2.90;;
75191;SDS011;63771;52.580;9.734;2023-04-28T04:59:52;4.10;;;3.70;;
75191;SDS011;63771;52.580;9.734;2023-04-28T05:02:17;3.40;;;3.10;;
75191;SDS011;63771;52.580;9.734;2023-04-28T05:04:42;6.80;;;3.07;;
75191;SDS011;63771;52.580;9.734;2023-04-28T05:07:08;4.50;;;3.07;;
75191;SDS011;63771;52.580;9.734;2023-04-28T05:09:33;5.70;;;3.13;;
75191;SDS011;63771;52.580;9.734;2023-04-28T05:11:58;5.53;;;3.53;;
75191;SDS011;63771;52.580;9.734;2023-04-28T05:14:24;4.30;;;3.22;;
75191;SDS011;63771;52.580;9.734;2023-04-28T05:16:49;4.40;;;3.35;;
75191;SDS011;63771;52.580;9.734;2023-04-28T05:19:15;4.70;;;3.30;;
75191;SDS011;63771;52.580;9.734;2023-04-28T05:21:40;4.30;;;3.10;;
75191;SDS011;63771;52.580;9.734;2023-04-28T05:24:05;3.27;;;2.97;;
75191;SDS011;63771;52.580;9.734;2023-04-28T05:26:31;3.53;;;3.10;;
75191;SDS011;63771;52.580;9.734;2023-04-28T05:28:56;8.93;;;3.30;;
75191;SDS011;63771;52.580;9.734;2023-04-28T05:31:22;3.50;;;3.20;;
75191;SDS011;63771;52.580;9.734;2023-04-28T05:33:47;4.70;;;3.30;;
75191;SDS011;63771;52.580;9.734;2023-04-28T05:36:12;5.30;;;3.40;;
75191;SDS011;63771;52.580;9.734;2023-04-28T05:38:40;3.38;;;2.95;;
75191;SDS011;63771;52.580;9.734;2023-04-28T05:41:06;9.55;;;3.85;;
75191;SDS011;63771;52.580;9.734;2023-04-28T05:43:31;5.10;;;3.20;;
75191;SDS011;63771;52.580;9.734;2023-04-28T05:45:56;3.40;;;3.20;;
75191;SDS011;63771;52.580;9.734;2023-04-28T05:48:22;3.77;;;3.47;;
75191;SDS011;63771;52.580;9.734;2023-04-28T05:50:47;6.10;;;3.45;;
75191;SDS011;63771;52.580;9.734;2023-04-28T05:53:13;3.65;;;3.35;;
75191;SDS011;63771;52.580;9.734;2023-04-28T05:55:38;5.93;;;3.47;;
75191;SDS011;63771;52.580;9.734;2023-04-28T05:58:03;5.10;;;3.80;;
75191;SDS011;63771;52.580;9.734;2023-04-28T06:00:29;3.20;;;3.00;;
75191;SDS011;63771;52.580;9.734;2023-04-28T06:02:54;4.03;;;3.63;;
75191;SDS011;63771;52.580;9.734;2023-04-28T06:05:20;6.00;;;3.70;;
75191;SDS011;63771;52.580;9.734;2023-04-28T06:07:45;4.00;;;2.88;;
75191;SDS011;63771;52.580;9.734;2023-04-28T06:10:10;3.77;;;3.23;;
75191;SDS011;63771;52.580;9.734;2023-04-28T06:12:36;5.43;;;3.92;;
75191;SDS011;63771;52.580;9.734;2023-04-28T06:15:02;4.00;;;3.60;;
75191;SDS011;63771;52.580;9.734;2023-04-28T06:17:28;5.00;;;4.32;;
75191;SDS011;63771;52.580;9.734;2023-04-28T06:19:55;4.88;;;4.47;;
75191;SDS011;63771;52.580;9.734;2023-04-28T06:22:22;6.35;;;3.97;;
75191;SDS011;63771;52.580;9.734;2023-04-28T06:24:48;6.05;;;3.65;;
75191;SDS011;63771;52.580;9.734;2023-04-28T06:27:13;7.28;;;4.18;;
75191;SDS011;63771;52.580;9.734;2023-04-28T06:29:39;6.93;;;4.50;;
75191;SDS011;63771;52.580;9.734;2023-04-28T06:32:04;7.97;;;4.13;;
75191;SDS011;63771;52.580;9.734;2023-04-28T06:34:30;8.00;;;4.10;;
75191;SDS011;63771;52.580;9.734;2023-04-28T06:36:57;6.07;;;4.25;;
75191;SDS011;63771;52.580;9.734;2023-04-28T06:39:22;8.65;;;4.00;;
75191;SDS011;63771;52.580;9.734;2023-04-28T06:41:48;4.90;;;4.40;;
75191;SDS011;63771;52.580;9.734;2023-04-28T06:44:13;5.90;;;4.17;;
75191;SDS011;63771;52.580;9.734;2023-04-28T06:46:38;5.50;;;4.03;;
75191;SDS011;63771;52.580;9.734;2023-04-28T06:49:04;8.40;;;4.70;;
75191;SDS011;63771;52.580;9.734;2023-04-28T06:51:30;5.80;;;4.23;;
75191;SDS011;63771;52.580;9.734;2023-04-28T06:53:56;4.53;;;4.13;;
75191;SDS011;63771;52.580;9.734;2023-04-28T06:56:22;8.27;;;4.90;;
75191;SDS011;63771;52.580;9.734;2023-04-28T06:58:48;9.52;;;4.60;;
75191;SDS011;63771;52.580;9.734;2023-04-28T07:01:13;5.72;;;4.95;;
75191;SDS011;63771;52.580;9.734;2023-04-28T07:03:39;6.07;;;4.47;;
75191;SDS011;63771;52.580;9.734;2023-04-28T07:06:04;6.03;;;4.93;;
75191;SDS011;63771;52.580;9.734;2023-04-28T07:08:30;9.23;;;5.07;;
75191;SDS011;63771;52.580;9.734;2023-04-28T07:10:56;6.28;;;4.82;;
75191;SDS011;63771;52.580;9.734;2023-04-28T07:13:21;7.03;;;5.63;;
75191;SDS011;63771;52.580;9.734;2023-04-28T07:15:46;8.77;;;5.90;;
75191;SDS011;63771;52.580;9.734;2023-04-28T07:18:12;7.72;;;5.68;;
75191;SDS011;63771;52.580;9.734;2023-04-28T07:20:37;5.90;;;4.97;;
75191;SDS011;63771;52.580;9.734;2023-04-28T07:23:03;7.75;;;6.70;;
75191;SDS011;63771;52.580;9.734;2023-04-28T07:25:28;8.17;;;4.90;;
75191;SDS011;63771;52.580;9.734;2023-04-28T07:27:53;5.78;;;4.68;;
75191;SDS011;63771;52.580;9.734;2023-04-28T07:30:19;7.67;;;5.63;;
75191;SDS011;63771;52.580;9.734;2023-04-28T07:32:44;6.90;;;5.40;;
75191;SDS011;63771;52.580;9.734;2023-04-28T07:35:09;8.70;;;7.00;;
75191;SDS011;63771;52.580;9.734;2023-04-28T07:37:35;12.03;;;6.60;;
75191;SDS011;63771;52.580;9.734;2023-04-28T07:40:01;10.07;;;7.10;;
75191;SDS011;63771;52.580;9.734;2023-04-28T07:42:27;7.63;;;5.80;;
75191;SDS011;63771;52.580;9.734;2023-04-28T07:44:52;11.97;;;6.00;;
75191;SDS011;63771;52.580;9.734;2023-04-28T07:47:17;8.73;;;6.37;;
75191;SDS011;63771;52.580;9.734;2023-04-28T07:49:43;7.55;;;6.32;;
75191;SDS011;63771;52.580;9.734;2023-04-28T07:52:08;8.23;;;6.10;;
75191;SDS011;63771;52.580;9.734;2023-04-28T07:54:33;10.65;;;6.95;;
75191;SDS011;63771;52.580;9.734;2023-04-28T07:56:59;9.27;;;5.72;;
75191;SDS011;63771;52.580;9.734;2023-04-28T07:59:25;7.85;;;5.53;;
75191;SDS011;63771;52.580;9.734;2023-04-28T08:01:50;8.82;;;5.90;;
75191;SDS011;63771;52.580;9.734;2023-04-28T08:04:16;8.55;;;6.88;;
75191;SDS011;63771;52.580;9.734;2023-04-28T08:06:41;8.67;;;6.10;;
75191;SDS011;63771;52.580;9.734;2023-04-28T08:09:07;9.02;;;6.43;;
75191;SDS011;63771;52.580;9.734;2023-04-28T08:11:33;7.20;;;5.25;;
75191;SDS011;63771;52.580;9.734;2023-04-28T08:13:58;8.57;;;6.18;;
75191;SDS011;63771;52.580;9.734;2023-04-28T08:16:27;10.98;;;6.28;;
75191;SDS011;63771;52.580;9.734;2023-04-28T08:18:53;11.57;;;6.22;;
75191;SDS011;63771;52.580;9.734;2023-04-28T08:21:18;8.25;;;6.55;;
75191;SDS011;63771;52.580;9.734;2023-04-28T08:23:44;8.50;;;6.53;;
75191;SDS011;63771;52.580;9.734;2023-04-28T08:26:10;7.18;;;5.82;;
75191;SDS011;63771;52.580;9.734;2023-04-28T08:28:36;8.65;;;6.25;;
75191;SDS011;63771;52.580;9.734;2023-04-28T08:31:01;13.27;;;5.50;;
75191;SDS011;63771;52.580;9.734;2023-04-28T08:33:26;8.77;;;6.20;;
75191;SDS011;63771;52.580;9.734;2023-04-28T08:35:52;9.52;;;7.43;;
75191;SDS011;63771;52.580;9.734;2023-04-28T08:38:19;12.57;;;7.10;;
75191;SDS011;63771;52.580;9.734;2023-04-28T08:40:46;12.90;;;6.05;;
75191;SDS011;63771;52.580;9.734;2023-04-28T08:43:11;13.10;;;5.90;;
75191;SDS011;63771;52.580;9.734;2023-04-28T08:45:42;9.77;;;5.68;;
75191;SDS011;63771;52.580;9.734;2023-04-28T08:48:18;9.85;;;6.20;;
75191;SDS011;63771;52.580;9.734;2023-04-28T08:50:48;7.22;;;6.32;;
75191;SDS011;63771;52.580;9.734;2023-04-28T08:53:16;11.98;;;7.35;;
75191;SDS011;63771;52.580;9.734;2023-04-28T08:55:55;8.75;;;5.43;;
75191;SDS011;63771;52.580;9.734;2023-04-28T08:58:22;7.25;;;6.25;;
75191;SDS011;63771;52.580;9.734;2023-04-28T09:00:49;8.90;;;6.07;;
75191;SDS011;63771;52.580;9.734;2023-04-28T09:03:15;8.38;;;6.20;;
75191;SDS011;63771;52.580;9.734;2023-04-28T09:05:40;7.67;;;5.87;;
75191;SDS011;63771;52.580;9.734;2023-04-28T09:08:05;9.47;;;6.20;;
75191;SDS011;63771;52.580;9.734;2023-04-28T09:10:30;10.03;;;5.87;;
75191;SDS011;63771;52.580;9.734;2023-04-28T09:12:56;9.60;;;5.38;;
75191;SDS011;63771;52.580;9.734;2023-04-28T09:15:32;10.32;;;6.22;;
75191;SDS011;63771;52.580;9.734;2023-04-28T09:18:04;10.77;;;6.50;;
75191;SDS011;63771;52.580;9.734;2023-04-28T09:20:31;10.52;;;6.13;;
75191;SDS011;63771;52.580;9.734;2023-04-28T09:23:17;8.13;;;5.25;;
75191;SDS011;63771;52.580;9.734;2023-04-28T09:28:25;6.78;;;5.68;;
75191;SDS011;63771;52.580;9.734;2023-04-28T09:30:50;8.30;;;5.07;;
75191;SDS011;63771;52.580;9.734;2023-04-28T09:33:16;11.60;;;6.38;;
75191;SDS011;63771;52.580;9.734;2023-04-28T09:35:42;10.00;;;5.90;;
75191;SDS011;63771;52.580;9.734;2023-04-28T09:45:56;9.38;;;7.30;;
75191;SDS011;63771;52.580;9.734;2023-04-28T09:48:32;12.52;;;8.15;;
75191;SDS011;63771;52.580;9.734;2023-04-28T09:51:05;11.27;;;7.35;;
75191;SDS011;63771;52.580;9.734;2023-04-28T09:53:32;13.07;;;7.13;;
75191;SDS011;63771;52.580;9.734;2023-04-28T09:56:00;8.77;;;6.80;;
75191;SDS011;63771;52.580;9.734;2023-04-28T09:58:27;11.65;;;7.07;;
75191;SDS011;63771;52.580;9.734;2023-04-28T10:00:54;9.90;;;6.15;;
75191;SDS011;63771;52.580;9.734;2023-04-28T10:03:22;9.85;;;6.05;;
75191;SDS011;63771;52.580;9.734;2023-04-28T10:05:49;10.38;;;7.38;;
75191;SDS011;63771;52.580;9.734;2023-04-28T10:08:17;9.90;;;6.50;;
75191;SDS011;63771;52.580;9.734;2023-04-28T10:10:43;10.48;;;6.22;;
75191;SDS011;63771;52.580;9.734;2023-04-28T10:13:10;10.63;;;6.07;;
75191;SDS011;63771;52.580;9.734;2023-04-28T10:15:36;9.70;;;6.30;;
75191;SDS011;63771;52.580;9.734;2023-04-28T10:18:01;8.30;;;5.97;;
75191;SDS011;63771;52.580;9.734;2023-04-28T10:20:29;11.75;;;6.70;;
75191;SDS011;63771;52.580;9.734;2023-04-28T10:25:54;10.52;;;5.63;;
75191;SDS011;63771;52.580;9.734;2023-04-28T10:28:23;9.57;;;5.53;;
75191;SDS011;63771;52.580;9.734;2023-04-28T10:33:35;10.57;;;5.95;;
75191;SDS011;63771;52.580;9.734;2023-04-28T10:36:01;9.02;;;6.53;;
75191;SDS011;63771;52.580;9.734;2023-04-28T10:38:28;11.20;;;6.68;;
75191;SDS011;63771;52.580;9.734;2023-04-28T10:40:53;9.30;;;6.60;;
75191;SDS011;63771;52.580;9.734;2023-04-28T10:56:06;5.78;;;4.90;;
75191;SDS011;63771;52.580;9.734;2023-04-28T10:58:31;8.32;;;6.00;;
75191;SDS011;63771;52.580;9.734;2023-04-28T11:01:22;10.95;;;6.43;;
75191;SDS011;63771;52.580;9.734;2023-04-28T11:06:22;9.32;;;5.50;;
75191;SDS011;63771;52.580;9.734;2023-04-28T11:08:55;7.80;;;6.18;;
75191;SDS011;63771;52.580;9.734;2023-04-28T11:11:32;8.68;;;5.85;;
75191;SDS011;63771;52.580;9.734;2023-04-28T11:19:14;11.80;;;6.15;;
75191;SDS011;63771;52.580;9.734;2023-04-28T11:21:43;8.52;;;6.40;;
75191;SDS011;63771;52.580;9.734;2023-04-28T11:24:09;8.77;;;5.75;;
75191;SDS011;63771;52.580;9.734;2023-04-28T11:26:36;8.10;;;6.60;;
75191;SDS011;63771;52.580;9.734;2023-04-28T11:29:02;7.60;;;6.65;;
75191;SDS011;63771;52.580;9.734;2023-04-28T11:31:27;10.75;;;6.13;;
75191;SDS011;63771;52.580;9.734;2023-04-28T11:33:55;8.30;;;5.53;;
75191;SDS011;63771;52.580;9.734;2023-04-28T11:36:34;7.78;;;6.07;;
75191;SDS011;63771;52.580;9.734;2023-04-28T11:39:04;8.35;;;5.88;;
75191;SDS011;63771;52.580;9.734;2023-04-28T11:41:39;7.30;;;5.88;;
75191;SDS011;63771;52.580;9.734;2023-04-28T11:44:09;9.73;;;5.50;;
75191;SDS011;63771;52.580;9.734;2023-04-28T11:46:43;8.75;;;5.80;;
75191;SDS011;63771;52.580;9.734;2023-04-28T11:49:30;7.10;;;4.82;;
75191;SDS011;63771;52.580;9.734;2023-04-28T11:52:05;7.55;;;5.70;;
75191;SDS011;63771;52.580;9.734;2023-04-28T11:54:31;7.95;;;5.60;;
75191;SDS011;63771;52.580;9.734;2023-04-28T11:56:58;10.65;;;8.27;;
75191;SDS011;63771;52.580;9.734;2023-04-28T11:59:28;10.65;;;6.95;;
75191;SDS011;63771;52.580;9.734;2023-04-28T12:01:58;8.80;;;5.53;;
75191;SDS011;63771;52.580;9.734;2023-04-28T12:04:30;6.95;;;5.43;;
75191;SDS011;63771;52.580;9.734;2023-04-28T12:09:38;8.70;;;6.50;;
75191;SDS011;63771;52.580;9.734;2023-04-28T12:12:29;9.98;;;6.63;;
75191;SDS011;63771;52.580;9.734;2023-04-28T12:14:55;18.95;;;9.27;;
75191;SDS011;63771;52.580;9.734;2023-04-28T12:17:30;14.85;;;8.25;;
75191;SDS011;63771;52.580;9.734;2023-04-28T12:19:59;16.45;;;9.40;;
75191;SDS011;63771;52.580;9.734;2023-04-28T12:22:26;8.80;;;5.80;;
75191;SDS011;63771;52.580;9.734;2023-04-28T12:25:04;10.55;;;7.82;;
75191;SDS011;63771;52.580;9.734;2023-04-28T12:27:31;9.63;;;6.65;;
75191;SDS011;63771;52.580;9.734;2023-04-28T12:29:57;12.20;;;8.82;;
75191;SDS011;63771;52.580;9.734;2023-04-28T12:32:36;12.00;;;6.88;;
75191;SDS011;63771;52.580;9.734;2023-04-28T12:35:05;7.50;;;5.63;;
75191;SDS011;63771;52.580;9.734;2023-04-28T12:37:31;8.40;;;6.75;;
75191;SDS011;63771;52.580;9.734;2023-04-28T12:39:56;9.60;;;5.93;;
75191;SDS011;63771;52.580;9.734;2023-04-28T12:42:22;10.35;;;6.65;;
75191;SDS011;63771;52.580;9.734;2023-04-28T12:44:48;11.57;;;7.32;;
75191;SDS011;63771;52.580;9.734;2023-04-28T12:47:14;12.60;;;5.68;;
75191;SDS011;63771;52.580;9.734;2023-04-28T12:49:42;6.75;;;5.47;;
75191;SDS011;63771;52.580;9.734;2023-04-28T12:52:07;10.25;;;5.45;;
75191;SDS011;63771;52.580;9.734;2023-04-28T12:54:33;6.40;;;5.77;;
75191;SDS011;63771;52.580;9.734;2023-04-28T12:56:58;11.50;;;5.93;;
75191;SDS011;63771;52.580;9.734;2023-04-28T12:59:23;7.95;;;6.68;;
75191;SDS011;63771;52.580;9.734;2023-04-28T13:01:49;9.23;;;6.25;;
75191;SDS011;63771;52.580;9.734;2023-04-28T13:04:15;12.90;;;6.40;;
75191;SDS011;63771;52.580;9.734;2023-04-28T13:06:41;10.75;;;7.07;;
75191;SDS011;63771;52.580;9.734;2023-04-28T13:09:08;10.27;;;6.65;;
75191;SDS011;63771;52.580;9.734;2023-04-28T13:11:38;9.80;;;6.88;;
75191;SDS011;63771;52.580;9.734;2023-04-28T13:14:03;13.68;;;8.45;;
75191;SDS011;63771;52.580;9.734;2023-04-28T13:16:29;10.00;;;6.50;;
75191;SDS011;63771;52.580;9.734;2023-04-28T13:18:55;10.48;;;6.82;;
75191;SDS011;63771;52.580;9.734;2023-04-28T13:21:22;7.82;;;6.35;;
75191;SDS011;63771;52.580;9.734;2023-04-28T13:23:50;7.90;;;5.90;;
75191;SDS011;63771;52.580;9.734;2023-04-28T13:26:25;8.10;;;6.35;;
75191;SDS011;63771;52.580;9.734;2023-04-28T13:28:51;7.18;;;6.38;;
75191;SDS011;63771;52.580;9.734;2023-04-28T13:31:16;9.98;;;6.80;;
75191;SDS011;63771;52.580;9.734;2023-04-28T13:33:43;12.35;;;7.65;;
75191;SDS011;63771;52.580;9.734;2023-04-28T13:36:08;9.23;;;6.17;;
75191;SDS011;63771;52.580;9.734;2023-04-28T13:38:34;6.80;;;6.18;;
75191;SDS011;63771;52.580;9.734;2023-04-28T13:40:59;11.52;;;7.95;;
75191;SDS011;63771;52.580;9.734;2023-04-28T13:43:25;15.77;;;6.80;;
75191;SDS011;63771;52.580;9.734;2023-04-28T13:45:51;10.35;;;6.43;;
75191;SDS011;63771;52.580;9.734;2023-04-28T13:48:17;9.70;;;6.05;;
75191;SDS011;63771;52.580;9.734;2023-04-28T13:50:42;7.97;;;6.70;;
75191;SDS011;63771;52.580;9.734;2023-04-28T13:53:08;7.38;;;6.60;;
75191;SDS011;63771;52.580;9.734;2023-04-28T13:55:33;9.53;;;6.27;;
75191;SDS011;63771;52.580;9.734;2023-04-28T13:57:58;8.48;;;5.97;;
75191;SDS011;63771;52.580;9.734;2023-04-28T14:00:28;8.05;;;6.72;;
75191;SDS011;63771;52.580;9.734;2023-04-28T14:02:53;8.90;;;7.10;;
75191;SDS011;63771;52.580;9.734;2023-04-28T14:05:18;11.83;;;7.30;;
75191;SDS011;63771;52.580;9.734;2023-04-28T14:07:44;11.33;;;7.20;;
75191;SDS011;63771;52.580;9.734;2023-04-28T14:10:10;9.68;;;6.95;;
75191;SDS011;63771;52.580;9.734;2023-04-28T14:12:35;9.90;;;7.32;;
75191;SDS011;63771;52.580;9.734;2023-04-28T14:15:02;12.52;;;8.13;;
75191;SDS011;63771;52.580;9.734;2023-04-28T14:17:28;9.70;;;7.25;;
75191;SDS011;63771;52.580;9.734;2023-04-28T14:19:54;8.32;;;6.95;;
75191;SDS011;63771;52.580;9.734;2023-04-28T14:22:20;9.73;;;6.20;;
75191;SDS011;63771;52.580;9.734;2023-04-28T14:24:45;7.15;;;6.45;;
75191;SDS011;63771;52.580;9.734;2023-04-28T14:27:11;10.93;;;7.20;;
75191;SDS011;63771;52.580;9.734;2023-04-28T14:29:39;113.93;;;15.18;;
75191;SDS011;63771;52.580;9.734;2023-04-28T14:32:06;8.40;;;7.15;;
75191;SDS011;63771;52.580;9.734;2023-04-28T14:34:31;6.80;;;6.10;;
75191;SDS011;63771;52.580;9.734;2023-04-28T14:36:56;11.13;;;6.60;;
75191;SDS011;63771;52.580;9.734;2023-04-28T14:39:21;10.53;;;6.43;;
75191;SDS011;63771;52.580;9.734;2023-04-28T14:41:47;8.50;;;6.60;;
75191;SDS011;63771;52.580;9.734;2023-04-28T14:44:12;11.02;;;7.40;;
75191;SDS011;63771;52.580;9.734;2023-04-28T14:46:38;18.67;;;8.20;;
75191;SDS011;63771;52.580;9.734;2023-04-28T14:49:03;9.38;;;7.85;;
75191;SDS011;63771;52.580;9.734;2023-04-28T14:51:30;8.38;;;7.35;;
75191;SDS011;63771;52.580;9.734;2023-04-28T14:53:55;8.65;;;7.55;;
75191;SDS011;63771;52.580;9.734;2023-04-28T14:56:20;10.33;;;7.03;;
75191;SDS011;63771;52.580;9.734;2023-04-28T14:58:46;12.07;;;8.10;;
75191;SDS011;63771;52.580;9.734;2023-04-28T15:01:11;8.18;;;6.95;;
75191;SDS011;63771;52.580;9.734;2023-04-28T15:03:37;9.98;;;7.35;;
75191;SDS011;63771;52.580;9.734;2023-04-28T15:06:02;8.68;;;7.10;;
75191;SDS011;63771;52.580;9.734;2023-04-28T15:08:29;9.43;;;7.25;;
75191;SDS011;63771;52.580;9.734;2023-04-28T15:10:54;10.50;;;6.65;;
75191;SDS011;63771;52.580;9.734;2023-04-28T15:13:19;8.03;;;6.77;;
75191;SDS011;63771;52.580;9.734;2023-04-28T15:15:46;7.78;;;6.53;;
75191;SDS011;63771;52.580;9.734;2023-04-28T15:18:11;7.93;;;6.50;;
75191;SDS011;63771;52.580;9.734;2023-04-28T15:20:37;8.30;;;6.75;;